Jamie Marie — WDE7178 — position and weather

sailwx.info

Track history (hours):
 
Tides and Currents Weather Stations Pressure Air Temp Water Temp Dewpoint Dewpoint Depression Visibility Wind Speed Wind Dir Waves Ship Positions

Jamie Marie

Owner: Jamie Marie, Inc., Aberdeen, WA. More information available from US FCC via Universal Licensing System and Coast Guard Vessel Documentation Center.

Last reported at 2016-Jul-23 11:13 UTC. Time now 2016-Jul-23 15:04 UTC.
Position N 47°12' W 124°35'.

Length 30 m.

Type: Fishing. MMSI: 366425240.

Date/timePositionNaut miles runAvg speedWind from/ knotsBaromVisibWave heightAir tempDewpointWater temp
2016-Jul-23 11:13N 47°12' W 124°35'6 8.3
2016-Jul-23 10:28N 47°07' W 124°29'8 8.1
2016-Jul-23 09:32N 47°01' W 124°21'8 8.2
2016-Jul-23 08:33N 46°56' W 124°13'5 4.4
2016-Jul-23 07:33N 46°54' W 124°06'0 0.0
2016-Jul-23 06:33N 46°54' W 124°06'0 0.0
2016-Jul-23 04:33N 46°54' W 124°06'0 0.0
2016-Jul-23 03:29N 46°54' W 124°06'0 0.0
2016-Jul-23 02:32N 46°54' W 124°06'0 0.0
2016-Jul-23 01:32N 46°54' W 124°06'0 0.0
2016-Jul-23 00:33N 46°54' W 124°06'0 0.0
2016-Jul-22 23:33N 46°54' W 124°06'0 0.0
2016-Jul-22 22:33N 46°54' W 124°06'0 0.0
2016-Jul-22 21:33N 46°54' W 124°06'0 0.0
2016-Jul-22 20:33N 46°54' W 124°06'0 0.0
2016-Jul-22 19:20N 46°54' W 124°06'0 0.0
2016-Jul-22 18:33N 46°54' W 124°06'0 0.0
2016-Jul-22 17:33N 46°54' W 124°06'0 0.0
2016-Jul-22 16:33N 46°54' W 124°06'0 0.0
2016-Jul-22 15:34N 46°54' W 124°06'0 0.2
2016-Jul-22 14:32N 46°55' W 124°06'0 0.2
2016-Jul-22 13:33N 46°54' W 124°06'0 0.0
2016-Jul-22 12:33N 46°54' W 124°06'0 0.0
2016-Jul-22 11:33N 46°54' W 124°06'0 0.0
2016-Jul-22 10:33N 46°54' W 124°06'0 0.0
2016-Jul-22 09:33N 46°54' W 124°06'0 0.0
2016-Jul-22 08:33N 46°54' W 124°06'0 0.0
2016-Jul-22 07:33N 46°54' W 124°06'0 0.0
2016-Jul-22 05:33N 46°54' W 124°06'0 0.0
2016-Jul-22 04:33N 46°54' W 124°06'0 0.0
2016-Jul-22 03:33N 46°54' W 124°06'0 0.0
2016-Jul-22 02:28N 46°54' W 124°06'0 0.0
2016-Jul-22 01:33N 46°54' W 124°06'0 0.0
2016-Jul-22 00:33N 46°54' W 124°06'0 0.0
2016-Jul-21 23:33N 46°54' W 124°06'0 0.0
2016-Jul-21 22:33N 46°54' W 124°06'0 0.0
2016-Jul-21 21:33N 46°54' W 124°06'0 0.0
2016-Jul-21 20:33N 46°54' W 124°06'0 0.0
2016-Jul-21 19:33N 46°54' W 124°06'0 0.0
2016-Jul-21 18:33N 46°54' W 124°06'0 0.0
2016-Jul-21 17:33N 46°54' W 124°06'0 0.0
2016-Jul-21 16:33N 46°54' W 124°06'0 0.0
2016-Jul-21 15:33N 46°54' W 124°06'0 0.0
2016-Jul-21 14:33N 46°54' W 124°06'0 0.0
2016-Jul-21 13:32N 46°54' W 124°06'0 0.0
2016-Jul-21 12:33N 46°54' W 124°06'0 0.0
2016-Jul-21 11:33N 46°54' W 124°06'0 0.0
2016-Jul-21 10:33N 46°54' W 124°06'0 0.0
2016-Jul-21 09:33N 46°54' W 124°06'0 0.0
2016-Jul-21 08:32N 46°54' W 124°06'0 0.0
2016-Jul-21 07:27N 46°54' W 124°06'0 0.0
2016-Jul-21 06:32N 46°54' W 124°06'0 0.0
2016-Jul-21 05:33N 46°54' W 124°06'0 0.0
2016-Jul-21 04:33N 46°54' W 124°06'0 0.0
2016-Jul-21 03:33N 46°54' W 124°06'0 0.0
2016-Jul-21 02:33N 46°54' W 124°06'2 2.3
2016-Jul-21 01:34N 46°55' W 124°10'6 6.5
2016-Jul-21 00:33N 46°59' W 124°17'8 7.8
2016-Jul-20 23:34N 47°05' W 124°25'8 7.9
2016-Jul-20 22:33N 47°11' W 124°32'2 0.2
2016-Jul-20 11:33N 47°09' W 124°31'9 9.0
2016-Jul-20 10:33N 47°03' W 124°22'9 9.2
2016-Jul-20 09:34N 46°56' W 124°13'5 4.7
2016-Jul-20 08:33N 46°54' W 124°06'0 0.0
2016-Jul-20 07:33N 46°54' W 124°06'0 0.0
2016-Jul-20 06:33N 46°54' W 124°06'0 0.0
2016-Jul-20 05:33N 46°54' W 124°06'0 0.0
2016-Jul-20 04:34N 46°54' W 124°06'0 0.0
2016-Jul-20 03:33N 46°54' W 124°06'0 0.0
2016-Jul-20 02:32N 46°54' W 124°06'0 0.0
2016-Jul-20 01:20N 46°54' W 124°06'0 0.0
2016-Jul-20 00:33N 46°54' W 124°06'0 0.0
2016-Jul-19 23:32N 46°54' W 124°06'1 1.4
2016-Jul-19 22:33N 46°55' W 124°08'7 7.0
2016-Jul-19 21:33N 46°59' W 124°17'8 8.1
2016-Jul-19 20:33N 47°05' W 124°24'24 1.1
2016-Jul-18 21:27N 46°58' W 124°58'8 7.3
2016-Jul-18 20:21N 46°50' W 124°55'6 8.1
2016-Jul-18 19:34N 46°45' W 124°50'7 6.6
2016-Jul-18 18:33N 46°39' W 124°44'9 8.6
2016-Jul-18 17:33N 46°34' W 124°34'5 5.0
2016-Jul-18 16:33N 46°29' W 124°32'5 5.1
2016-Jul-18 15:34N 46°34' W 124°34'1 1.4
2016-Jul-18 14:33N 46°35' W 124°36'3 3.3
2016-Jul-18 13:33N 46°35' W 124°31'1 0.8
2016-Jul-18 12:33N 46°36' W 124°30'0 0.2
2016-Jul-18 11:33N 46°36' W 124°30'7 7.5
2016-Jul-18 10:33N 46°42' W 124°24'9 8.9
2016-Jul-18 09:33N 46°49' W 124°17'9 8.8
2016-Jul-18 08:33N 46°55' W 124°07'1 0.7
2016-Jul-18 07:33N 46°54' W 124°06'0 0.0
2016-Jul-18 06:33N 46°54' W 124°06'0 0.0
2016-Jul-18 05:33N 46°54' W 124°06'0 0.0
2016-Jul-18 04:33N 46°54' W 124°06'0 0.0
2016-Jul-18 03:33N 46°54' W 124°06'0 0.0
2016-Jul-18 02:23N 46°54' W 124°06'0 0.0
2016-Jul-18 01:33N 46°54' W 124°06'0 0.0
2016-Jul-18 00:33N 46°54' W 124°06'0 0.0
2016-Jul-17 23:33N 46°54' W 124°06'0 0.0
2016-Jul-17 22:33N 46°54' W 124°06'0 0.0
2016-Jul-17 21:33N 46°54' W 124°06'0 0.0
2016-Jul-17 20:29N 46°54' W 124°06'0 0.0
2016-Jul-17 19:33N 46°54' W 124°06'0 0.0
2016-Jul-17 18:33N 46°54' W 124°06'0 0.0
2016-Jul-17 17:33N 46°54' W 124°06'0 0.0
2016-Jul-17 16:33N 46°54' W 124°06'0 0.0
2016-Jul-17 15:33N 46°54' W 124°06'0 0.0
2016-Jul-17 14:33N 46°54' W 124°06'0 0.0
2016-Jul-17 13:30N 46°54' W 124°06'0 0.0
2016-Jul-17 11:25N 46°54' W 124°06'0 0.0
2016-Jul-17 10:30N 46°54' W 124°06'0 0.0
2016-Jul-17 09:33N 46°54' W 124°06'3 3.0
2016-Jul-17 08:34N 46°55' W 124°11'7 7.0
2016-Jul-17 07:34N 47°00' W 124°17'9 8.2
2016-Jul-17 06:30N 47°08' W 124°24'4 0.2
2016-Jul-16 10:33N 47°07' W 124°30'8 8.4
2016-Jul-16 09:33N 47°01' W 124°21'8 8.0
2016-Jul-16 08:33N 46°55' W 124°12'4 4.1
2016-Jul-16 07:33N 46°54' W 124°06'0 0.0
2016-Jul-16 06:33N 46°54' W 124°06'0 0.0
2016-Jul-16 04:33N 46°54' W 124°06'0 0.0
2016-Jul-16 03:33N 46°54' W 124°06'0 0.0
2016-Jul-16 02:33N 46°54' W 124°06'0 0.0
2016-Jul-16 01:33N 46°54' W 124°06'0 0.0
2016-Jul-16 00:25N 46°54' W 124°06'0 0.0
2016-Jul-15 23:33N 46°54' W 124°06'0 0.0
2016-Jul-15 22:32N 46°54' W 124°06'0 0.0
2016-Jul-15 21:33N 46°54' W 124°06'0 0.0
2016-Jul-15 20:33N 46°54' W 124°06'0 0.0
2016-Jul-15 19:33N 46°54' W 124°06'0 0.0
2016-Jul-15 18:33N 46°54' W 124°06'0 0.0
2016-Jul-15 17:33N 46°54' W 124°06'0 0.2
2016-Jul-15 16:33N 46°55' W 124°07'0 0.2
2016-Jul-15 15:33N 46°54' W 124°06'0 0.0
2016-Jul-15 14:33N 46°54' W 124°06'0 0.0
2016-Jul-15 13:33N 46°54' W 124°06'0 0.0
2016-Jul-15 12:33N 46°54' W 124°06'0 0.0
2016-Jul-15 10:18N 46°54' W 124°06'0 0.0
2016-Jul-15 08:29N 46°54' W 124°06'0 0.0
2016-Jul-15 07:33N 46°54' W 124°06'3 2.8
2016-Jul-15 06:33N 46°55' W 124°11'5 5.4
2016-Jul-15 05:33N 46°51' W 124°16'6 6.1
2016-Jul-15 04:33N 46°46' W 124°21'7 6.5
2016-Jul-15 03:33N 46°41' W 124°27'6 6.2
2016-Jul-15 02:33N 46°36' W 124°33'5 4.5
2016-Jul-15 01:34N 46°32' W 124°37'2 2.0
2016-Jul-15 00:33N 46°34' W 124°36'3 2.6
2016-Jul-14 23:33N 46°34' W 124°32'2 2.2
2016-Jul-14 22:33N 46°32' W 124°30'1 1.4
2016-Jul-14 21:33N 46°33' W 124°30'2 1.6
2016-Jul-14 20:33N 46°32' W 124°31'2 2.3
2016-Jul-14 19:33N 46°34' W 124°32'2 2.4
2016-Jul-14 18:33N 46°34' W 124°36'3 2.7
2016-Jul-14 17:33N 46°36' W 124°38'3 2.9
2016-Jul-14 16:33N 46°38' W 124°41'2 2.3
2016-Jul-14 15:33N 46°37' W 124°39'5 4.6
2016-Jul-14 14:33N 46°34' W 124°33'5 4.5
2016-Jul-14 13:33N 46°30' W 124°30'5 4.7
2016-Jul-14 12:33N 46°35' W 124°29'2 2.3
2016-Jul-14 11:33N 46°33' W 124°27'2 2.0
2016-Jul-14 10:33N 46°31' W 124°29'2 1.5
2016-Jul-14 09:33N 46°30' W 124°31'6 5.7
2016-Jul-14 08:33N 46°36' W 124°30'6 5.9
2016-Jul-14 07:33N 46°41' W 124°26'8 7.6
2016-Jul-14 06:33N 46°48' W 124°21'9 8.8
2016-Jul-14 05:33N 46°55' W 124°12'4 3.7
2016-Jul-14 04:33N 46°54' W 124°06'0 0.0
2016-Jul-14 03:33N 46°54' W 124°06'0 0.0
2016-Jul-14 02:33N 46°54' W 124°06'0 0.0
2016-Jul-14 01:33N 46°54' W 124°06'0 0.0
2016-Jul-14 00:33N 46°54' W 124°06'0 0.0
2016-Jul-13 23:33N 46°54' W 124°06'0 0.0
2016-Jul-13 22:33N 46°54' W 124°06'4 3.5
2016-Jul-13 21:33N 46°54' W 124°12'8 8.3
2016-Jul-13 20:33N 46°47' W 124°19'8 8.3
2016-Jul-13 19:33N 46°41' W 124°26'8 7.9
2016-Jul-13 18:33N 46°34' W 124°33'1 1.3
2016-Jul-13 17:33N 46°33' W 124°32'3 2.9
2016-Jul-13 16:33N 46°30' W 124°31'2 1.9
2016-Jul-13 15:33N 46°32' W 124°31'2 2.1
2016-Jul-13 14:33N 46°34' W 124°32'1 0.6
2016-Jul-13 13:33N 46°34' W 124°33'1 0.5
2016-Jul-13 12:33N 46°35' W 124°33'1 0.9
2016-Jul-13 11:33N 46°35' W 124°34'  
Track history (hours):
 
Tides and Currents Weather Stations Pressure Air Temp Water Temp Dewpoint Dewpoint Depression Visibility Wind Speed Wind Dir Waves Ship Positions

Jamie Marie

Owner: Jamie Marie, Inc., Aberdeen, WA. More information available from US FCC via Universal Licensing System and Coast Guard Vessel Documentation Center.

Last reported at 2016-Jul-23 11:13 UTC. Time now 2016-Jul-23 15:04 UTC.
Position N 47°12' W 124°35'.

Length 30 m.

Type: Fishing. MMSI: 366425240.

Date/timePositionNaut miles runAvg speedWind from/ knotsBaromVisibWave heightAir tempDewpointWater temp
2016-Jul-23 11:13N 47°12' W 124°35'6 8.3
2016-Jul-23 10:28N 47°07' W 124°29'8 8.1
2016-Jul-23 09:32N 47°01' W 124°21'8 8.2
2016-Jul-23 08:33N 46°56' W 124°13'5 4.4
2016-Jul-23 07:33N 46°54' W 124°06'0 0.0
2016-Jul-23 06:33N 46°54' W 124°06'0 0.0
2016-Jul-23 04:33N 46°54' W 124°06'0 0.0
2016-Jul-23 03:29N 46°54' W 124°06'0 0.0
2016-Jul-23 02:32N 46°54' W 124°06'0 0.0
2016-Jul-23 01:32N 46°54' W 124°06'0 0.0
2016-Jul-23 00:33N 46°54' W 124°06'0 0.0
2016-Jul-22 23:33N 46°54' W 124°06'0 0.0
2016-Jul-22 22:33N 46°54' W 124°06'0 0.0
2016-Jul-22 21:33N 46°54' W 124°06'0 0.0
2016-Jul-22 20:33N 46°54' W 124°06'0 0.0
2016-Jul-22 19:20N 46°54' W 124°06'0 0.0
2016-Jul-22 18:33N 46°54' W 124°06'0 0.0
2016-Jul-22 17:33N 46°54' W 124°06'0 0.0
2016-Jul-22 16:33N 46°54' W 124°06'0 0.0
2016-Jul-22 15:34N 46°54' W 124°06'0 0.2
2016-Jul-22 14:32N 46°55' W 124°06'0 0.2
2016-Jul-22 13:33N 46°54' W 124°06'0 0.0
2016-Jul-22 12:33N 46°54' W 124°06'0 0.0
2016-Jul-22 11:33N 46°54' W 124°06'0 0.0
2016-Jul-22 10:33N 46°54' W 124°06'0 0.0
2016-Jul-22 09:33N 46°54' W 124°06'0 0.0
2016-Jul-22 08:33N 46°54' W 124°06'0 0.0
2016-Jul-22 07:33N 46°54' W 124°06'0 0.0
2016-Jul-22 05:33N 46°54' W 124°06'0 0.0
2016-Jul-22 04:33N 46°54' W 124°06'0 0.0
2016-Jul-22 03:33N 46°54' W 124°06'0 0.0
2016-Jul-22 02:28N 46°54' W 124°06'0 0.0
2016-Jul-22 01:33N 46°54' W 124°06'0 0.0
2016-Jul-22 00:33N 46°54' W 124°06'0 0.0
2016-Jul-21 23:33N 46°54' W 124°06'0 0.0
2016-Jul-21 22:33N 46°54' W 124°06'0 0.0
2016-Jul-21 21:33N 46°54' W 124°06'0 0.0
2016-Jul-21 20:33N 46°54' W 124°06'0 0.0
2016-Jul-21 19:33N 46°54' W 124°06'0 0.0
2016-Jul-21 18:33N 46°54' W 124°06'0 0.0
2016-Jul-21 17:33N 46°54' W 124°06'0 0.0
2016-Jul-21 16:33N 46°54' W 124°06'0 0.0
2016-Jul-21 15:33N 46°54' W 124°06'0 0.0
2016-Jul-21 14:33N 46°54' W 124°06'0 0.0
2016-Jul-21 13:32N 46°54' W 124°06'0 0.0
2016-Jul-21 12:33N 46°54' W 124°06'0 0.0
2016-Jul-21 11:33N 46°54' W 124°06'0 0.0
2016-Jul-21 10:33N 46°54' W 124°06'0 0.0
2016-Jul-21 09:33N 46°54' W 124°06'0 0.0
2016-Jul-21 08:32N 46°54' W 124°06'0 0.0
2016-Jul-21 07:27N 46°54' W 124°06'0 0.0
2016-Jul-21 06:32N 46°54' W 124°06'0 0.0
2016-Jul-21 05:33N 46°54' W 124°06'0 0.0
2016-Jul-21 04:33N 46°54' W 124°06'0 0.0
2016-Jul-21 03:33N 46°54' W 124°06'0 0.0
2016-Jul-21 02:33N 46°54' W 124°06'2 2.3
2016-Jul-21 01:34N 46°55' W 124°10'6 6.5
2016-Jul-21 00:33N 46°59' W 124°17'8 7.8
2016-Jul-20 23:34N 47°05' W 124°25'8 7.9
2016-Jul-20 22:33N 47°11' W 124°32'2 0.2
2016-Jul-20 11:33N 47°09' W 124°31'9 9.0
2016-Jul-20 10:33N 47°03' W 124°22'9 9.2
2016-Jul-20 09:34N 46°56' W 124°13'5 4.7
2016-Jul-20 08:33N 46°54' W 124°06'0 0.0
2016-Jul-20 07:33N 46°54' W 124°06'0 0.0
2016-Jul-20 06:33N 46°54' W 124°06'0 0.0
2016-Jul-20 05:33N 46°54' W 124°06'0 0.0
2016-Jul-20 04:34N 46°54' W 124°06'0 0.0
2016-Jul-20 03:33N 46°54' W 124°06'0 0.0
2016-Jul-20 02:32N 46°54' W 124°06'0 0.0
2016-Jul-20 01:20N 46°54' W 124°06'0 0.0
2016-Jul-20 00:33N 46°54' W 124°06'0 0.0
2016-Jul-19 23:32N 46°54' W 124°06'1 1.4
2016-Jul-19 22:33N 46°55' W 124°08'7 7.0
2016-Jul-19 21:33N 46°59' W 124°17'8 8.1
2016-Jul-19 20:33N 47°05' W 124°24'24 1.1
2016-Jul-18 21:27N 46°58' W 124°58'8 7.3
2016-Jul-18 20:21N 46°50' W 124°55'6 8.1
2016-Jul-18 19:34N 46°45' W 124°50'7 6.6
2016-Jul-18 18:33N 46°39' W 124°44'9 8.6
2016-Jul-18 17:33N 46°34' W 124°34'5 5.0
2016-Jul-18 16:33N 46°29' W 124°32'5 5.1
2016-Jul-18 15:34N 46°34' W 124°34'1 1.4
2016-Jul-18 14:33N 46°35' W 124°36'3 3.3
2016-Jul-18 13:33N 46°35' W 124°31'1 0.8
2016-Jul-18 12:33N 46°36' W 124°30'0 0.2
2016-Jul-18 11:33N 46°36' W 124°30'7 7.5
2016-Jul-18 10:33N 46°42' W 124°24'9 8.9
2016-Jul-18 09:33N 46°49' W 124°17'9 8.8
2016-Jul-18 08:33N 46°55' W 124°07'1 0.7
2016-Jul-18 07:33N 46°54' W 124°06'0 0.0
2016-Jul-18 06:33N 46°54' W 124°06'0 0.0
2016-Jul-18 05:33N 46°54' W 124°06'0 0.0
2016-Jul-18 04:33N 46°54' W 124°06'0 0.0
2016-Jul-18 03:33N 46°54' W 124°06'0 0.0
2016-Jul-18 02:23N 46°54' W 124°06'0 0.0
2016-Jul-18 01:33N 46°54' W 124°06'0 0.0
2016-Jul-18 00:33N 46°54' W 124°06'0 0.0
2016-Jul-17 23:33N 46°54' W 124°06'0 0.0
2016-Jul-17 22:33N 46°54' W 124°06'0 0.0
2016-Jul-17 21:33N 46°54' W 124°06'0 0.0
2016-Jul-17 20:29N 46°54' W 124°06'0 0.0
2016-Jul-17 19:33N 46°54' W 124°06'0 0.0
2016-Jul-17 18:33N 46°54' W 124°06'0 0.0
2016-Jul-17 17:33N 46°54' W 124°06'0 0.0
2016-Jul-17 16:33N 46°54' W 124°06'0 0.0
2016-Jul-17 15:33N 46°54' W 124°06'0 0.0
2016-Jul-17 14:33N 46°54' W 124°06'0 0.0
2016-Jul-17 13:30N 46°54' W 124°06'0 0.0
2016-Jul-17 11:25N 46°54' W 124°06'0 0.0
2016-Jul-17 10:30N 46°54' W 124°06'0 0.0
2016-Jul-17 09:33N 46°54' W 124°06'3 3.0
2016-Jul-17 08:34N 46°55' W 124°11'7 7.0
2016-Jul-17 07:34N 47°00' W 124°17'9 8.2
2016-Jul-17 06:30N 47°08' W 124°24'4 0.2
2016-Jul-16 10:33N 47°07' W 124°30'8 8.4
2016-Jul-16 09:33N 47°01' W 124°21'8 8.0
2016-Jul-16 08:33N 46°55' W 124°12'4 4.1
2016-Jul-16 07:33N 46°54' W 124°06'0 0.0
2016-Jul-16 06:33N 46°54' W 124°06'0 0.0
2016-Jul-16 04:33N 46°54' W 124°06'0 0.0
2016-Jul-16 03:33N 46°54' W 124°06'0 0.0
2016-Jul-16 02:33N 46°54' W 124°06'0 0.0
2016-Jul-16 01:33N 46°54' W 124°06'0 0.0
2016-Jul-16 00:25N 46°54' W 124°06'0 0.0
2016-Jul-15 23:33N 46°54' W 124°06'0 0.0
2016-Jul-15 22:32N 46°54' W 124°06'0 0.0
2016-Jul-15 21:33N 46°54' W 124°06'0 0.0
2016-Jul-15 20:33N 46°54' W 124°06'0 0.0
2016-Jul-15 19:33N 46°54' W 124°06'0 0.0
2016-Jul-15 18:33N 46°54' W 124°06'0 0.0
2016-Jul-15 17:33N 46°54' W 124°06'0 0.2
2016-Jul-15 16:33N 46°55' W 124°07'0 0.2
2016-Jul-15 15:33N 46°54' W 124°06'0 0.0
2016-Jul-15 14:33N 46°54' W 124°06'0 0.0
2016-Jul-15 13:33N 46°54' W 124°06'0 0.0
2016-Jul-15 12:33N 46°54' W 124°06'0 0.0
2016-Jul-15 10:18N 46°54' W 124°06'0 0.0
2016-Jul-15 08:29N 46°54' W 124°06'0 0.0
2016-Jul-15 07:33N 46°54' W 124°06'3 2.8
2016-Jul-15 06:33N 46°55' W 124°11'5 5.4
2016-Jul-15 05:33N 46°51' W 124°16'6 6.1
2016-Jul-15 04:33N 46°46' W 124°21'7 6.5
2016-Jul-15 03:33N 46°41' W 124°27'6 6.2
2016-Jul-15 02:33N 46°36' W 124°33'5 4.5
2016-Jul-15 01:34N 46°32' W 124°37'2 2.0
2016-Jul-15 00:33N 46°34' W 124°36'3 2.6
2016-Jul-14 23:33N 46°34' W 124°32'2 2.2
2016-Jul-14 22:33N 46°32' W 124°30'1 1.4
2016-Jul-14 21:33N 46°33' W 124°30'2 1.6
2016-Jul-14 20:33N 46°32' W 124°31'2 2.3
2016-Jul-14 19:33N 46°34' W 124°32'2 2.4
2016-Jul-14 18:33N 46°34' W 124°36'3 2.7
2016-Jul-14 17:33N 46°36' W 124°38'3 2.9
2016-Jul-14 16:33N 46°38' W 124°41'2 2.3
2016-Jul-14 15:33N 46°37' W 124°39'5 4.6
2016-Jul-14 14:33N 46°34' W 124°33'5 4.5
2016-Jul-14 13:33N 46°30' W 124°30'5 4.7
2016-Jul-14 12:33N 46°35' W 124°29'2 2.3
2016-Jul-14 11:33N 46°33' W 124°27'2 2.0
2016-Jul-14 10:33N 46°31' W 124°29'2 1.5
2016-Jul-14 09:33N 46°30' W 124°31'6 5.7
2016-Jul-14 08:33N 46°36' W 124°30'6 5.9
2016-Jul-14 07:33N 46°41' W 124°26'8 7.6
2016-Jul-14 06:33N 46°48' W 124°21'9 8.8
2016-Jul-14 05:33N 46°55' W 124°12'4 3.7
2016-Jul-14 04:33N 46°54' W 124°06'0 0.0
2016-Jul-14 03:33N 46°54' W 124°06'0 0.0
2016-Jul-14 02:33N 46°54' W 124°06'0 0.0
2016-Jul-14 01:33N 46°54' W 124°06'0 0.0
2016-Jul-14 00:33N 46°54' W 124°06'0 0.0
2016-Jul-13 23:33N 46°54' W 124°06'0 0.0
2016-Jul-13 22:33N 46°54' W 124°06'4 3.5
2016-Jul-13 21:33N 46°54' W 124°12'8 8.3
2016-Jul-13 20:33N 46°47' W 124°19'8 8.3
2016-Jul-13 19:33N 46°41' W 124°26'8 7.9
2016-Jul-13 18:33N 46°34' W 124°33'1 1.3
2016-Jul-13 17:33N 46°33' W 124°32'3 2.9
2016-Jul-13 16:33N 46°30' W 124°31'2 1.9
2016-Jul-13 15:33N 46°32' W 124°31'2 2.1
2016-Jul-13 14:33N 46°34' W 124°32'1 0.6
2016-Jul-13 13:33N 46°34' W 124°33'1 0.5
2016-Jul-13 12:33N 46°35' W 124°33'1 0.9
2016-Jul-13 11:33N 46°35' W 124°34'  

Dump ship's entire track history